Time;durP1;ratioP1;P1;durP2;ratioP2;P2;SDS_P1;SDS_P2;PMS_P1;PMS_P2;Temp;Humidity;BMP_temperature;BMP_pressure;BME280_temperature;BME280_humidity;BME280_pressure;Samples;Min_cycle;Max_cycle;Signal;HPM_P1;HPM_P2
2022/09/01 00:00:00;;;;;;;8.90;8.10;;;;;;;;;;5009124;28;20199;-75
2022/09/01 00:02:27;;;;;;;10.53;9.53;;;;;;;;;;5010295;28;20197;-74
2022/09/01 00:04:57;;;;;;;10.27;9.37;;;;;;;;;;5009749;28;20217;-75
2022/09/01 00:07:25;;;;;;;10.80;9.30;;;;;;;;;;5013715;28;20257;-75
2022/09/01 00:09:50;;;;;;;11.23;9.20;;;;;;;;;;4993573;28;20182;-75
2022/09/01 00:12:16;;;;;;;10.80;9.80;;;;;;;;;;4992213;28;20222;-75
2022/09/01 00:14:41;;;;;;;11.23;10.17;;;;;;;;;;4973217;28;20200;-75
2022/09/01 00:17:09;;;;;;;11.30;10.33;;;;;;;;;;4987067;28;20223;-75
2022/09/01 00:19:35;;;;;;;10.17;9.27;;;;;;;;;;4988404;28;20209;-75
2022/09/01 00:22:01;;;;;;;10.53;9.43;;;;;;;;;;5022310;28;20173;-75
2022/09/01 00:24:27;;;;;;;11.57;10.47;;;;;;;;;;5013306;28;20180;-75
2022/09/01 00:26:53;;;;;;;12.03;10.80;;;;;;;;;;4995980;28;20169;-75
2022/09/01 00:29:18;;;;;;;11.60;10.50;;;;;;;;;;4995740;28;20183;-75
2022/09/01 00:31:43;;;;;;;12.17;11.03;;;;;;;;;;5013419;28;20178;-75
2022/09/01 00:34:09;;;;;;;12.20;11.10;;;;;;;;;;5028068;28;20214;-75
2022/09/01 00:36:34;;;;;;;13.20;12.00;;;;;;;;;;5007643;28;20242;-75
2022/09/01 00:38:59;;;;;;;13.13;11.37;;;;;;;;;;4979356;28;20216;-75
2022/09/01 00:41:27;;;;;;;11.30;9.73;;;;;;;;;;4984891;28;20182;-75
2022/09/01 00:43:54;;;;;;;12.17;10.97;;;;;;;;;;4975926;28;20261;-75
2022/09/01 00:46:23;;;;;;;11.80;10.60;;;;;;;;;;4976107;28;20190;-75
2022/09/01 00:48:54;;;;;;;11.53;10.33;;;;;;;;;;4976194;28;20203;-75
2022/09/01 00:51:19;;;;;;;13.93;12.37;;;;;;;;;;4986561;28;20185;-75
2022/09/01 00:53:45;;;;;;;12.30;11.00;;;;;;;;;;4995565;28;20185;-75
2022/09/01 00:56:11;;;;;;;13.80;12.53;;;;;;;;;;5032039;28;20257;-75
2022/09/01 00:58:37;;;;;;;13.07;11.87;;;;;;;;;;5014656;28;20181;-75
2022/09/01 01:01:03;;;;;;;13.50;12.23;;;;;;;;;;5015247;28;20234;-75
2022/09/01 01:03:29;;;;;;;14.13;12.83;;;;;;;;;;5014909;28;20211;-75
2022/09/01 01:05:56;;;;;;;13.90;12.60;;;;;;;;;;5014898;28;20204;-75
2022/09/01 01:08:35;;;;;;;13.60;12.37;;;;;;;;;;5008830;28;20177;-75
2022/09/01 01:11:01;;;;;;;14.37;12.97;;;;;;;;;;5008384;28;20199;-75
2022/09/01 01:13:34;;;;;;;10.53;9.63;;;;;;;;;;5014919;28;20178;-75
2022/09/01 01:16:01;;;;;;;17.37;11.30;;;;;;;;;;5014533;28;20184;-75
2022/09/01 01:18:26;;;;;;;15.70;14.17;;;;;;;;;;5010989;28;20264;-75
2022/09/01 01:24:09;;;;;;;15.67;14.17;;;;;;;;;;4973320;28;20200;-75
2022/09/01 01:26:36;;;;;;;17.40;15.60;;;;;;;;;;4965313;28;20178;-75
2022/09/01 01:29:01;;;;;;;15.97;14.33;;;;;;;;;;4992272;28;20188;-75
2022/09/01 01:31:27;;;;;;;22.77;19.30;;;;;;;;;;4991541;28;20264;-75
2022/09/01 01:33:54;;;;;;;24.23;21.70;;;;;;;;;;4997074;28;20205;-74
2022/09/01 01:36:24;;;;;;;24.07;21.50;;;;;;;;;;5003037;28;20216;-75
2022/09/01 01:38:51;;;;;;;29.47;24.47;;;;;;;;;;5001360;28;20271;-75
2022/09/01 01:41:20;;;;;;;34.30;27.03;;;;;;;;;;4988154;28;20204;-75
2022/09/01 01:43:47;;;;;;;34.63;25.93;;;;;;;;;;4986706;28;20215;-75
2022/09/01 01:46:13;;;;;;;61.30;28.60;;;;;;;;;;4992606;28;20216;-75
2022/09/01 01:48:40;;;;;;;81.90;30.63;;;;;;;;;;4991040;28;20364;-75
2022/09/01 01:51:06;;;;;;;73.10;30.47;;;;;;;;;;4992598;28;20172;-75
2022/09/01 01:53:31;;;;;;;62.13;31.53;;;;;;;;;;4995442;28;20224;-75
2022/09/01 01:55:58;;;;;;;77.00;32.23;;;;;;;;;;4996047;28;20183;-75
2022/09/01 01:58:24;;;;;;;78.30;31.90;;;;;;;;;;4990998;28;20177;-75
2022/09/01 02:00:51;;;;;;;65.07;30.33;;;;;;;;;;4990645;28;20202;-75
2022/09/01 02:03:20;;;;;;;61.20;32.43;;;;;;;;;;5002999;28;20172;-75
2022/09/01 02:05:46;;;;;;;52.87;30.60;;;;;;;;;;5010350;28;20175;-75
2022/09/01 02:08:14;;;;;;;49.10;31.70;;;;;;;;;;5004914;28;20172;-75
2022/09/01 02:10:41;;;;;;;42.53;30.33;;;;;;;;;;4998879;28;20173;-75
2022/09/01 02:13:07;;;;;;;45.10;31.67;;;;;;;;;;4990706;28;20178;-75
2022/09/01 02:15:41;;;;;;;42.80;31.67;;;;;;;;;;4991522;28;20173;-75
2022/09/01 02:18:06;;;;;;;63.47;30.07;;;;;;;;;;4990408;28;20285;-75
2022/09/01 02:20:32;;;;;;;75.97;31.47;;;;;;;;;;5004728;28;20456;-75
2022/09/01 02:22:57;;;;;;;43.83;30.73;;;;;;;;;;4993988;28;20173;-75
2022/09/01 02:25:23;;;;;;;65.50;31.30;;;;;;;;;;4991806;28;20183;-75
2022/09/01 02:27:54;;;;;;;45.60;29.23;;;;;;;;;;4988208;28;20166;-75
2022/09/01 02:30:19;;;;;;;66.67;28.73;;;;;;;;;;4982234;28;20234;-75
2022/09/01 02:32:46;;;;;;;42.23;27.53;;;;;;;;;;4991312;28;20173;-75
2022/09/01 02:35:12;;;;;;;38.73;27.10;;;;;;;;;;4998183;28;20208;-75
2022/09/01 02:37:38;;;;;;;33.27;29.03;;;;;;;;;;4986706;28;20186;-75
2022/09/01 02:40:05;;;;;;;46.10;29.10;;;;;;;;;;4990111;28;20208;-75
2022/09/01 02:42:30;;;;;;;40.17;28.20;;;;;;;;;;4990879;28;20196;-75
2022/09/01 02:44:57;;;;;;;35.37;27.90;;;;;;;;;;4990300;28;20170;-75
2022/09/01 02:47:23;;;;;;;33.30;27.73;;;;;;;;;;4990239;28;20172;-75
2022/09/01 02:49:49;;;;;;;34.27;28.70;;;;;;;;;;4990183;28;20183;-75
2022/09/01 02:52:16;;;;;;;30.47;27.27;;;;;;;;;;4991293;28;20189;-75
2022/09/01 02:54:44;;;;;;;30.40;27.13;;;;;;;;;;5000209;28;20182;-75
2022/09/01 02:57:09;;;;;;;35.00;28.93;;;;;;;;;;5009634;28;20180;-75
2022/09/01 02:59:36;;;;;;;34.13;28.00;;;;;;;;;;5009387;28;20214;-75
2022/09/01 03:02:01;;;;;;;34.20;27.57;;;;;;;;;;5009679;28;20172;-75
2022/09/01 03:04:26;;;;;;;30.50;27.20;;;;;;;;;;5009646;28;20179;-75
2022/09/01 03:06:53;;;;;;;30.17;26.57;;;;;;;;;;5010644;28;20171;-75
2022/09/01 03:09:18;;;;;;;31.67;28.27;;;;;;;;;;5009499;28;20223;-75
2022/09/01 03:11:46;;;;;;;31.90;28.30;;;;;;;;;;4984133;28;20205;-75
2022/09/01 03:14:11;;;;;;;30.53;27.13;;;;;;;;;;4970472;28;20284;-75
2022/09/01 03:16:38;;;;;;;28.47;25.33;;;;;;;;;;4971486;28;20173;-75
2022/09/01 03:19:06;;;;;;;32.47;27.10;;;;;;;;;;4980418;28;20231;-75
2022/09/01 03:21:31;;;;;;;29.27;25.93;;;;;;;;;;4989850;28;20195;-75
2022/09/01 03:23:57;;;;;;;31.50;27.57;;;;;;;;;;4989900;28;20201;-75
2022/09/01 03:26:22;;;;;;;28.33;25.30;;;;;;;;;;4990714;28;20169;-75
2022/09/01 03:28:48;;;;;;;29.07;25.93;;;;;;;;;;5006919;28;20183;-75
2022/09/01 03:31:14;;;;;;;28.60;25.50;;;;;;;;;;5009753;28;20569;-75
2022/09/01 03:33:39;;;;;;;28.37;25.23;;;;;;;;;;4998320;28;20200;-75
2022/09/01 03:36:05;;;;;;;28.97;25.43;;;;;;;;;;4989570;28;20173;-75
2022/09/01 03:38:31;;;;;;;30.07;25.93;;;;;;;;;;4991734;28;20209;-75
2022/09/01 03:41:01;;;;;;;27.00;24.20;;;;;;;;;;4993136;28;20212;-75
2022/09/01 03:43:28;;;;;;;27.10;24.13;;;;;;;;;;4982364;28;20245;-75
2022/09/01 03:45:54;;;;;;;25.63;22.90;;;;;;;;;;4992739;28;20331;-75
2022/09/01 03:48:20;;;;;;;27.63;24.77;;;;;;;;;;4993658;28;20205;-75
2022/09/01 03:50:46;;;;;;;29.07;25.93;;;;;;;;;;4993067;28;20203;-75
2022/09/01 03:53:12;;;;;;;30.97;25.67;;;;;;;;;;4992339;28;20232;-75
2022/09/01 03:55:39;;;;;;;26.77;23.83;;;;;;;;;;5005455;28;20215;-75
2022/09/01 03:58:06;;;;;;;31.13;25.17;;;;;;;;;;5012738;28;20186;-75
2022/09/01 04:00:39;;;;;;;38.23;24.63;;;;;;;;;;5013027;28;20215;-75
2022/09/01 04:03:06;;;;;;;30.00;23.57;;;;;;;;;;4994437;28;20195;-75
2022/09/01 04:05:32;;;;;;;35.17;22.43;;;;;;;;;;4994429;28;20172;-74
2022/09/01 04:08:02;;;;;;;34.30;22.80;;;;;;;;;;4992877;28;20177;-75
2022/09/01 04:10:28;;;;;;;30.23;23.23;;;;;;;;;;4993211;28;20195;-75
2022/09/01 04:12:58;;;;;;;24.90;22.33;;;;;;;;;;4993955;28;20181;-75
2022/09/01 04:15:24;;;;;;;24.13;21.53;;;;;;;;;;4993748;28;20187;-75
2022/09/01 04:20:53;;;;;;;23.63;21.13;;;;;;;;;;4993360;28;20228;-75
2022/09/01 04:23:28;;;;;;;25.17;22.47;;;;;;;;;;4975364;28;20192;-75
2022/09/01 04:26:07;;;;;;;23.90;21.40;;;;;;;;;;4975228;28;20185;-75
2022/09/01 04:28:35;;;;;;;25.20;21.63;;;;;;;;;;4975230;28;20263;-74
2022/09/01 04:31:04;;;;;;;22.60;20.03;;;;;;;;;;4991418;28;20169;-74
2022/09/01 04:33:36;;;;;;;24.77;21.07;;;;;;;;;;4978123;28;20200;-75
2022/09/01 04:36:06;;;;;;;24.77;21.17;;;;;;;;;;4987070;28;20189;-75
2022/09/01 04:38:35;;;;;;;23.50;20.87;;;;;;;;;;4994422;28;20186;-75
2022/09/01 04:41:05;;;;;;;23.27;19.83;;;;;;;;;;4978449;28;20226;-74
2022/09/01 04:43:30;;;;;;;24.20;21.23;;;;;;;;;;4982624;28;20178;-75
2022/09/01 04:45:57;;;;;;;24.70;20.67;;;;;;;;;;4974826;28;20210;-75
2022/09/01 04:48:23;;;;;;;25.33;21.43;;;;;;;;;;4974482;28;20184;-75
2022/09/01 04:50:48;;;;;;;23.40;20.97;;;;;;;;;;4982285;28;20194;-74
2022/09/01 04:53:14;;;;;;;19.70;17.40;;;;;;;;;;4982820;28;20198;-75
2022/09/01 04:55:42;;;;;;;21.60;18.67;;;;;;;;;;4992854;28;20188;-75
2022/09/01 04:58:09;;;;;;;22.13;19.80;;;;;;;;;;4993300;28;20168;-75
2022/09/01 05:00:35;;;;;;;18.93;17.00;;;;;;;;;;4992265;28;20214;-75
2022/09/01 05:03:04;;;;;;;21.30;19.03;;;;;;;;;;4993304;28;20172;-75
2022/09/01 05:05:38;;;;;;;19.97;17.83;;;;;;;;;;4993394;28;20232;-75
2022/09/01 05:08:03;;;;;;;21.70;17.90;;;;;;;;;;4992055;28;20180;-75
2022/09/01 05:10:28;;;;;;;31.70;21.37;;;;;;;;;;4992414;28;20233;-75
2022/09/01 05:12:56;;;;;;;31.17;21.87;;;;;;;;;;4993182;28;20374;-75
2022/09/01 05:15:21;;;;;;;28.93;22.93;;;;;;;;;;4992841;28;20203;-76
2022/09/01 05:17:48;;;;;;;29.43;21.57;;;;;;;;;;5001639;28;20268;-75
2022/09/01 05:20:13;;;;;;;37.30;22.33;;;;;;;;;;4995055;28;20238;-75
2022/09/01 05:22:39;;;;;;;28.53;23.07;;;;;;;;;;4981324;28;20201;-76
2022/09/01 05:25:14;;;;;;;25.97;22.83;;;;;;;;;;4975244;28;20195;-75
2022/09/01 05:27:40;;;;;;;27.70;21.30;;;;;;;;;;5023520;28;20252;-75
2022/09/01 05:30:07;;;;;;;26.17;22.80;;;;;;;;;;5032223;28;20186;-75
2022/09/01 05:32:35;;;;;;;26.13;22.20;;;;;;;;;;5029884;28;20175;-75
2022/09/01 05:35:01;;;;;;;26.93;23.37;;;;;;;;;;5020152;28;20274;-75
2022/09/01 05:37:29;;;;;;;31.37;28.17;;;;;;;;;;5031130;28;20308;-75
2022/09/01 05:39:55;;;;;;;27.63;22.03;;;;;;;;;;4994258;28;20419;-75
2022/09/01 05:42:20;;;;;;;25.33;22.63;;;;;;;;;;4977819;28;20188;-75
2022/09/01 05:44:46;;;;;;;27.97;23.00;;;;;;;;;;5027822;28;20188;-75
2022/09/01 05:47:12;;;;;;;23.60;21.07;;;;;;;;;;5031719;28;20184;-75
2022/09/01 05:49:38;;;;;;;27.23;23.00;;;;;;;;;;5031825;28;20182;-75
2022/09/01 05:52:04;;;;;;;26.70;23.90;;;;;;;;;;5006993;28;20255;-75
2022/09/01 05:54:29;;;;;;;27.03;23.50;;;;;;;;;;5019416;28;20396;-75
2022/09/01 05:56:57;;;;;;;25.83;22.90;;;;;;;;;;4994487;28;20227;-75
2022/09/01 05:59:22;;;;;;;25.23;21.50;;;;;;;;;;4994037;28;20232;-75
2022/09/01 06:01:48;;;;;;;27.17;24.17;;;;;;;;;;4992927;28;20263;-75
2022/09/01 06:04:13;;;;;;;25.67;22.90;;;;;;;;;;4991983;28;20164;-75
2022/09/01 06:06:42;;;;;;;25.83;22.03;;;;;;;;;;4974525;28;20218;-75
2022/09/01 06:09:09;;;;;;;27.83;23.20;;;;;;;;;;4991923;28;20276;-75
2022/09/01 06:11:34;;;;;;;26.90;23.03;;;;;;;;;;4974907;28;20278;-75
2022/09/01 06:14:00;;;;;;;30.43;23.60;;;;;;;;;;4991967;28;20488;-75
2022/09/01 06:16:26;;;;;;;25.03;21.40;;;;;;;;;;4991999;28;20199;-75
2022/09/01 06:18:52;;;;;;;25.77;22.53;;;;;;;;;;4988911;28;20232;-75
2022/09/01 06:21:18;;;;;;;25.63;21.53;;;;;;;;;;4987849;28;20179;-75
2022/09/01 06:23:44;;;;;;;24.63;21.43;;;;;;;;;;4971219;28;20248;-75
2022/09/01 06:26:22;;;;;;;25.00;22.37;;;;;;;;;;4971207;28;20260;-75
2022/09/01 06:28:48;;;;;;;23.80;21.23;;;;;;;;;;4973217;28;20174;-75
2022/09/01 06:31:14;;;;;;;22.23;19.83;;;;;;;;;;4987998;28;20214;-75
2022/09/01 06:33:39;;;;;;;21.47;19.03;;;;;;;;;;4994626;28;20192;-75
2022/09/01 06:36:07;;;;;;;22.97;19.63;;;;;;;;;;4999244;28;20239;-75
2022/09/01 06:38:32;;;;;;;20.83;18.37;;;;;;;;;;4990375;28;20187;-75
2022/09/01 06:40:59;;;;;;;19.93;17.70;;;;;;;;;;4990215;28;20204;-75
2022/09/01 06:43:24;;;;;;;20.73;18.53;;;;;;;;;;4981908;28;20180;-75
2022/09/01 06:45:53;;;;;;;21.47;18.47;;;;;;;;;;4991275;28;20264;-75
2022/09/01 06:48:18;;;;;;;18.50;15.30;;;;;;;;;;4991461;28;20271;-75
2022/09/01 06:50:44;;;;;;;19.00;15.93;;;;;;;;;;4990076;28;20188;-75
2022/09/01 06:53:12;;;;;;;16.63;14.93;;;;;;;;;;4996680;28;20203;-75
2022/09/01 06:55:37;;;;;;;18.97;16.77;;;;;;;;;;4998361;28;20283;-75
2022/09/01 06:58:07;;;;;;;19.87;16.37;;;;;;;;;;4982353;28;20262;-75
2022/09/01 07:00:34;;;;;;;18.33;16.53;;;;;;;;;;4972242;28;20205;-76
2022/09/01 07:02:59;;;;;;;16.67;14.53;;;;;;;;;;4970684;28;20198;-75
2022/09/01 07:05:24;;;;;;;17.47;15.23;;;;;;;;;;4972073;28;20251;-75
2022/09/01 07:07:53;;;;;;;14.87;13.47;;;;;;;;;;4971988;28;20173;-75
2022/09/01 07:10:21;;;;;;;16.37;14.03;;;;;;;;;;5010764;28;20303;-75
2022/09/01 07:12:47;;;;;;;15.77;14.07;;;;;;;;;;5009271;28;20189;-75
2022/09/01 07:15:15;;;;;;;13.33;11.93;;;;;;;;;;5016108;28;20175;-75
2022/09/01 07:17:41;;;;;;;13.30;11.80;;;;;;;;;;5015779;28;20229;-75
2022/09/01 07:20:08;;;;;;;13.60;12.03;;;;;;;;;;5005165;28;20214;-75
2022/09/01 07:22:33;;;;;;;12.93;11.67;;;;;;;;;;4996119;28;20219;-75
2022/09/01 07:24:58;;;;;;;12.83;11.60;;;;;;;;;;4998443;28;20168;-75
2022/09/01 07:27:26;;;;;;;13.77;12.37;;;;;;;;;;5015815;28;20252;-75
2022/09/01 07:29:56;;;;;;;13.87;12.53;;;;;;;;;;5016042;28;20184;-75
2022/09/01 07:32:22;;;;;;;11.47;10.33;;;;;;;;;;5016486;28;20174;-75
2022/09/01 07:34:47;;;;;;;13.90;12.57;;;;;;;;;;5005319;28;20199;-75
2022/09/01 07:37:12;;;;;;;14.63;13.23;;;;;;;;;;5013550;28;20178;-75
2022/09/01 07:39:45;;;;;;;15.37;13.87;;;;;;;;;;5000281;28;20207;-75
2022/09/01 07:42:10;;;;;;;14.13;12.83;;;;;;;;;;4997536;28;20181;-75
2022/09/01 07:44:37;;;;;;;15.03;13.40;;;;;;;;;;4996302;28;20187;-75
2022/09/01 07:47:03;;;;;;;13.90;12.60;;;;;;;;;;4996297;28;20178;-75
2022/09/01 07:49:28;;;;;;;13.20;11.97;;;;;;;;;;4997337;28;20173;-75
2022/09/01 07:51:53;;;;;;;13.73;12.47;;;;;;;;;;4995880;28;20183;-75
2022/09/01 07:54:21;;;;;;;11.60;10.50;;;;;;;;;;5003917;28;20235;-75
2022/09/01 07:56:46;;;;;;;12.10;11.00;;;;;;;;;;4997347;28;20225;-75
2022/09/01 07:59:13;;;;;;;11.70;10.57;;;;;;;;;;4998753;28;20202;-75
2022/09/01 08:01:38;;;;;;;12.47;11.27;;;;;;;;;;5015669;28;20172;-75
2022/09/01 08:04:04;;;;;;;13.50;12.20;;;;;;;;;;5016056;28;20282;-75
2022/09/01 08:06:29;;;;;;;12.00;10.90;;;;;;;;;;5015578;28;20174;-75
2022/09/01 08:08:55;;;;;;;13.10;11.90;;;;;;;;;;5016429;28;20227;-75
2022/09/01 08:11:24;;;;;;;10.90;9.87;;;;;;;;;;5001730;28;20206;-75
2022/09/01 08:13:49;;;;;;;12.93;11.83;;;;;;;;;;4976681;28;20173;-75
2022/09/01 08:16:15;;;;;;;12.13;11.03;;;;;;;;;;4982787;28;20179;-75
2022/09/01 08:18:40;;;;;;;12.87;11.67;;;;;;;;;;4995787;28;20216;-75
2022/09/01 08:21:07;;;;;;;11.67;10.47;;;;;;;;;;4994868;28;20261;-75
2022/09/01 08:23:32;;;;;;;14.00;10.37;;;;;;;;;;4976204;28;20199;-75
2022/09/01 08:25:57;;;;;;;12.67;11.37;;;;;;;;;;4974415;28;20268;-75
2022/09/01 08:28:22;;;;;;;9.30;8.40;;;;;;;;;;4976780;28;20177;-75
2022/09/01 08:30:48;;;;;;;11.43;9.93;;;;;;;;;;4987173;28;20180;-75
2022/09/01 08:33:13;;;;;;;10.87;9.87;;;;;;;;;;4985086;28;20175;-75
2022/09/01 08:35:39;;;;;;;9.73;8.83;;;;;;;;;;5001498;28;20188;-75
2022/09/01 08:38:05;;;;;;;11.20;9.93;;;;;;;;;;4992122;28;20206;-75
2022/09/01 08:40:30;;;;;;;7.80;7.07;;;;;;;;;;4993434;28;20310;-75
2022/09/01 08:43:04;;;;;;;9.00;8.10;;;;;;;;;;4985405;28;20185;-75
2022/09/01 08:45:46;;;;;;;9.63;8.63;;;;;;;;;;5065451;23;20236;-75
2022/09/01 08:48:26;;;;;;;10.77;9.70;;;;;;;;;;5012951;28;20177;-75
2022/09/01 08:50:55;;;;;;;9.17;8.37;;;;;;;;;;5011688;28;20180;-74
2022/09/01 08:53:30;;;;;;;8.87;8.10;;;;;;;;;;5011767;28;20184;-75
2022/09/01 08:55:56;;;;;;;9.40;8.60;;;;;;;;;;5011955;28;20173;-74
2022/09/01 08:58:22;;;;;;;8.60;7.70;;;;;;;;;;5011767;28;20235;-75
2022/09/01 09:00:53;;;;;;;9.57;8.67;;;;;;;;;;5011716;28;20203;-75
2022/09/01 09:03:37;;;;;;;8.43;7.60;;;;;;;;;;5013424;28;20170;-74
2022/09/01 09:06:09;;;;;;;7.80;7.10;;;;;;;;;;5011766;28;20171;-75
2022/09/01 09:08:51;;;;;;;9.03;8.23;;;;;;;;;;4997956;28;20225;-75
2022/09/01 09:11:23;;;;;;;9.57;7.13;;;;;;;;;;4996972;28;20172;-74
2022/09/01 09:14:01;;;;;;;9.63;7.67;;;;;;;;;;5012388;28;20323;-74
2022/09/01 09:16:53;;;;;;;7.70;7.00;;;;;;;;;;5011449;28;20179;-75
2022/09/01 09:19:23;;;;;;;7.30;6.70;;;;;;;;;;5008364;28;20201;-75
2022/09/01 09:21:50;;;;;;;8.60;7.80;;;;;;;;;;5010854;28;20190;-74
2022/09/01 09:24:28;;;;;;;8.50;7.70;;;;;;;;;;5007696;28;20192;-74
2022/09/01 09:26:54;;;;;;;8.33;7.53;;;;;;;;;;4991429;28;20178;-74
2022/09/01 09:29:21;;;;;;;9.07;8.17;;;;;;;;;;4995401;28;20175;-73
2022/09/01 09:31:49;;;;;;;9.40;8.20;;;;;;;;;;4992969;28;20227;-73
2022/09/01 09:34:31;;;;;;;8.20;7.50;;;;;;;;;;5009183;28;20197;-73
2022/09/01 09:36:59;;;;;;;7.77;7.07;;;;;;;;;;5016869;28;20195;-73
2022/09/01 09:39:24;;;;;;;7.83;7.13;;;;;;;;;;5010934;28;20198;-73
2022/09/01 09:42:09;;;;;;;6.80;6.20;;;;;;;;;;5008431;28;20277;-73
2022/09/01 09:44:42;;;;;;;7.50;6.80;;;;;;;;;;4993304;28;20259;-73
2022/09/01 09:47:09;;;;;;;6.60;6.00;;;;;;;;;;4994935;28;20231;-73
2022/09/01 09:49:35;;;;;;;6.77;6.23;;;;;;;;;;4994682;28;20232;-73
2022/09/01 09:52:03;;;;;;;7.23;6.53;;;;;;;;;;5037761;28;20174;-73
2022/09/01 09:54:30;;;;;;;6.27;5.77;;;;;;;;;;5033930;28;20182;-73
2022/09/01 09:57:01;;;;;;;7.53;6.87;;;;;;;;;;5033550;28;20188;-72
2022/09/01 09:59:28;;;;;;;7.53;6.93;;;;;;;;;;5024219;28;20247;-73
2022/09/01 10:02:13;;;;;;;6.87;6.17;;;;;;;;;;5012187;28;20265;-73
2022/09/01 10:04:39;;;;;;;6.40;5.87;;;;;;;;;;5012013;28;20200;-73
2022/09/01 10:07:22;;;;;;;6.37;5.77;;;;;;;;;;4994179;28;20175;-73
2022/09/01 10:09:48;;;;;;;8.40;5.30;;;;;;;;;;5011306;28;20185;-73
2022/09/01 10:12:13;;;;;;;6.30;5.80;;;;;;;;;;4993965;28;20175;-73
2022/09/01 10:14:46;;;;;;;7.60;6.50;;;;;;;;;;5011513;28;20181;-72
2022/09/01 10:17:13;;;;;;;6.60;5.97;;;;;;;;;;5030717;28;20307;-73
2022/09/01 10:19:41;;;;;;;6.83;6.20;;;;;;;;;;5030930;28;20201;-73
2022/09/01 10:22:07;;;;;;;6.00;5.50;;;;;;;;;;5013142;28;20173;-73
2022/09/01 10:24:34;;;;;;;6.90;6.40;;;;;;;;;;5013411;28;20182;-73
2022/09/01 10:27:01;;;;;;;7.20;6.47;;;;;;;;;;5030875;28;20178;-73
2022/09/01 10:29:31;;;;;;;6.70;6.20;;;;;;;;;;5013918;28;20237;-73
2022/09/01 10:31:59;;;;;;;8.03;6.90;;;;;;;;;;5011858;28;20192;-72
2022/09/01 10:34:26;;;;;;;7.57;6.97;;;;;;;;;;5013249;28;20212;-73
2022/09/01 10:36:51;;;;;;;8.57;7.77;;;;;;;;;;5032636;28;20214;-73
2022/09/01 10:39:17;;;;;;;7.33;6.63;;;;;;;;;;5036163;28;20233;-73
2022/09/01 10:41:49;;;;;;;8.37;7.50;;;;;;;;;;5028710;28;20221;-73
2022/09/01 10:44:29;;;;;;;8.60;7.80;;;;;;;;;;5030178;28;20219;-73
2022/09/01 10:46:55;;;;;;;7.97;7.27;;;;;;;;;;4990253;28;20198;-73
2022/09/01 10:49:27;;;;;;;6.77;6.13;;;;;;;;;;4987214;28;20198;-73
2022/09/01 10:51:53;;;;;;;7.37;6.77;;;;;;;;;;4999220;28;20246;-73
2022/09/01 10:54:47;;;;;;;7.30;6.67;;;;;;;;;;5007829;28;20190;-73
2022/09/01 10:57:20;;;;;;;7.30;6.60;;;;;;;;;;4996533;28;20309;-73
2022/09/01 10:59:45;;;;;;;7.43;6.83;;;;;;;;;;5009209;28;20202;-73
2022/09/01 11:02:10;;;;;;;7.10;6.40;;;;;;;;;;5009475;28;20232;-73
2022/09/01 11:04:36;;;;;;;6.40;5.90;;;;;;;;;;5009761;28;20177;-73
2022/09/01 11:07:05;;;;;;;5.82;5.32;;;;;;;;;;4988916;28;20188;-73
2022/09/01 11:09:30;;;;;;;6.80;6.20;;;;;;;;;;4971695;28;20178;-73
2022/09/01 11:11:59;;;;;;;6.30;5.57;;;;;;;;;;4982199;28;20191;-73
2022/09/01 11:14:28;;;;;;;5.37;4.90;;;;;;;;;;4989898;28;20182;-73
2022/09/01 11:17:12;;;;;;;5.20;4.67;;;;;;;;;;4989872;28;20176;-73
2022/09/01 11:19:57;;;;;;;4.40;4.10;;;;;;;;;;4990939;28;20193;-73
2022/09/01 11:22:32;;;;;;;4.37;3.97;;;;;;;;;;4990538;28;20187;-73
2022/09/01 11:25:15;;;;;;;4.83;4.43;;;;;;;;;;4973422;28;20182;-73
2022/09/01 11:27:49;;;;;;;4.90;4.43;;;;;;;;;;4971629;28;20173;-72
2022/09/01 11:30:15;;;;;;;4.40;4.10;;;;;;;;;;4989574;28;20183;-73
2022/09/01 11:32:41;;;;;;;4.53;4.13;;;;;;;;;;4989336;28;20176;-73
2022/09/01 11:35:15;;;;;;;11.00;10.30;;;;;;;;;;4996932;28;20202;-73
2022/09/01 11:37:40;;;;;;;4.40;4.10;;;;;;;;;;4990599;28;20264;-73
2022/09/01 11:40:07;;;;;;;4.40;4.07;;;;;;;;;;4989780;28;20302;-73
2022/09/01 11:42:42;;;;;;;3.80;3.50;;;;;;;;;;4990574;28;20185;-73
2022/09/01 11:45:12;;;;;;;4.90;4.50;;;;;;;;;;5002561;28;20223;-73
2022/09/01 11:47:40;;;;;;;5.57;4.50;;;;;;;;;;5029661;28;20193;-73
2022/09/01 11:50:07;;;;;;;6.13;5.13;;;;;;;;;;5012576;28;20249;-73
2022/09/01 11:52:34;;;;;;;5.20;4.80;;;;;;;;;;5016059;28;20189;-73
2022/09/01 11:55:00;;;;;;;4.27;3.90;;;;;;;;;;5049785;28;20210;-73
2022/09/01 11:57:26;;;;;;;5.00;4.60;;;;;;;;;;5021286;28;20209;-73
2022/09/01 11:59:51;;;;;;;4.83;4.43;;;;;;;;;;5010412;28;20232;-73
2022/09/01 12:02:25;;;;;;;5.30;4.90;;;;;;;;;;5013525;28;20179;-73
2022/09/01 12:04:53;;;;;;;4.73;4.33;;;;;;;;;;5014017;28;20178;-73
2022/09/01 12:07:27;;;;;;;4.53;4.17;;;;;;;;;;5013868;28;20175;-73
2022/09/01 12:09:52;;;;;;;3.33;3.13;;;;;;;;;;5014036;28;20183;-73
2022/09/01 12:12:27;;;;;;;4.00;3.70;;;;;;;;;;5023319;28;20185;-73
2022/09/01 12:14:59;;;;;;;3.83;3.53;;;;;;;;;;5006516;28;20277;-73
2022/09/01 12:17:24;;;;;;;4.63;4.27;;;;;;;;;;5013714;28;20171;-73
2022/09/01 12:19:50;;;;;;;3.27;2.97;;;;;;;;;;5005960;28;20200;-73
2022/09/01 12:22:17;;;;;;;3.90;3.60;;;;;;;;;;5016041;28;20182;-73
2022/09/01 12:24:47;;;;;;;3.93;3.60;;;;;;;;;;5015861;28;20175;-74
2022/09/01 12:27:12;;;;;;;5.27;4.77;;;;;;;;;;5015353;28;20183;-73
2022/09/01 12:29:38;;;;;;;3.70;3.40;;;;;;;;;;5015761;28;20187;-73
2022/09/01 12:32:04;;;;;;;4.30;4.00;;;;;;;;;;5022994;28;20186;-73
2022/09/01 12:34:32;;;;;;;4.77;4.37;;;;;;;;;;5030796;28;20252;-73
2022/09/01 12:37:06;;;;;;;4.30;4.00;;;;;;;;;;5048937;28;20179;-73
2022/09/01 12:39:42;;;;;;;3.70;3.40;;;;;;;;;;5053388;28;20199;-74
2022/09/01 12:42:29;;;;;;;3.57;3.27;;;;;;;;;;5017679;28;20185;-73
2022/09/01 12:44:54;;;;;;;3.80;3.50;;;;;;;;;;5032847;28;20254;-73
2022/09/01 12:47:32;;;;;;;4.20;3.33;;;;;;;;;;5015348;28;20252;-74
2022/09/01 12:49:58;;;;;;;4.47;4.10;;;;;;;;;;5037063;28;20175;-73
2022/09/01 12:52:25;;;;;;;4.20;3.73;;;;;;;;;;5014935;28;20188;-73
2022/09/01 12:54:52;;;;;;;3.33;3.13;;;;;;;;;;5015352;28;20184;-73
2022/09/01 12:57:27;;;;;;;4.13;3.83;;;;;;;;;;5031607;28;20231;-73
2022/09/01 13:00:08;;;;;;;4.90;4.60;;;;;;;;;;5031816;28;20196;-73
2022/09/01 13:02:38;;;;;;;4.33;3.70;;;;;;;;;;5006878;28;20182;-74
2022/09/01 13:05:22;;;;;;;4.37;4.07;;;;;;;;;;5013067;28;20203;-73
2022/09/01 13:07:47;;;;;;;3.77;3.47;;;;;;;;;;5031966;28;20173;-74
2022/09/01 13:10:13;;;;;;;3.97;3.67;;;;;;;;;;5014872;28;20191;-74
2022/09/01 13:12:40;;;;;;;3.73;3.53;;;;;;;;;;5013995;28;20185;-74
2022/09/01 13:15:06;;;;;;;4.10;3.70;;;;;;;;;;5031988;28;20174;-73
2022/09/01 13:17:31;;;;;;;6.73;3.97;;;;;;;;;;5014444;28;20184;-74
2022/09/01 13:19:56;;;;;;;4.20;3.90;;;;;;;;;;5014580;28;20209;-73
2022/09/01 13:22:21;;;;;;;4.40;4.00;;;;;;;;;;5031582;28;20177;-74
2022/09/01 13:24:47;;;;;;;5.03;4.10;;;;;;;;;;5014421;28;20260;-73
2022/09/01 13:27:13;;;;;;;4.63;4.33;;;;;;;;;;5014562;28;20217;-73
2022/09/01 13:29:39;;;;;;;4.03;3.73;;;;;;;;;;5014264;28;20200;-74
2022/09/01 13:32:04;;;;;;;4.37;4.07;;;;;;;;;;5014220;28;20247;-74
2022/09/01 13:34:29;;;;;;;4.37;3.97;;;;;;;;;;5039941;28;20201;-73
2022/09/01 13:36:54;;;;;;;3.87;3.57;;;;;;;;;;5029450;28;20182;-73
2022/09/01 13:39:21;;;;;;;4.20;3.70;;;;;;;;;;5024731;28;20207;-74
2022/09/01 13:41:47;;;;;;;4.43;4.13;;;;;;;;;;5026636;28;20174;-74
2022/09/01 13:44:12;;;;;;;4.23;3.93;;;;;;;;;;5014185;28;20389;-74
2022/09/01 13:46:38;;;;;;;4.10;3.80;;;;;;;;;;5010784;28;20360;-73
2022/09/01 13:49:03;;;;;;;5.23;4.83;;;;;;;;;;5012076;28;20179;-73
2022/09/01 13:51:29;;;;;;;4.70;4.30;;;;;;;;;;5023118;28;20179;-74
2022/09/01 13:53:54;;;;;;;4.13;3.83;;;;;;;;;;5047289;28;20318;-73
2022/09/01 13:56:19;;;;;;;3.93;3.63;;;;;;;;;;5038406;28;20188;-73
2022/09/01 13:58:44;;;;;;;3.73;3.40;;;;;;;;;;4990970;28;20172;-73
2022/09/01 14:01:10;;;;;;;3.77;3.40;;;;;;;;;;4992283;28;20242;-73
2022/09/01 14:03:36;;;;;;;3.50;3.30;;;;;;;;;;4990933;28;20240;-73
2022/09/01 14:06:01;;;;;;;3.90;3.60;;;;;;;;;;4992306;28;20157;-73
2022/09/01 14:08:26;;;;;;;3.90;3.60;;;;;;;;;;4991124;28;20260;-73
2022/09/01 14:10:52;;;;;;;3.60;3.30;;;;;;;;;;4992138;28;20180;-74
2022/09/01 14:13:21;;;;;;;3.87;3.57;;;;;;;;;;4991400;28;20257;-74
2022/09/01 14:15:47;;;;;;;4.27;3.67;;;;;;;;;;4991866;28;20232;-73
2022/09/01 14:18:14;;;;;;;4.10;3.73;;;;;;;;;;4991879;28;20175;-74
2022/09/01 14:20:41;;;;;;;3.57;3.30;;;;;;;;;;5006079;28;20203;-73
2022/09/01 14:23:07;;;;;;;3.23;2.93;;;;;;;;;;5010320;28;20169;-73
2022/09/01 14:25:33;;;;;;;3.47;3.17;;;;;;;;;;5010443;28;20221;-74
2022/09/01 14:27:59;;;;;;;3.17;2.97;;;;;;;;;;5010157;28;20261;-73
2022/09/01 14:30:25;;;;;;;3.40;3.20;;;;;;;;;;5005137;28;20260;-74
2022/09/01 14:32:51;;;;;;;3.07;2.87;;;;;;;;;;4994802;28;20303;-73
2022/09/01 14:35:17;;;;;;;3.47;3.17;;;;;;;;;;5020900;28;20211;-73
2022/09/01 14:37:44;;;;;;;3.73;3.40;;;;;;;;;;5046511;28;20185;-73